sensor_id;sensor_type;location;lat;lon;timestamp;P1;durP1;ratioP1;P2;durP2;ratioP2
53519;SDS011;39397;53.204;5.778;2022-12-18T00:00:53;80.57;;;35.33;;
53519;SDS011;39397;53.204;5.778;2022-12-18T00:03:18;85.38;;;40.88;;
53519;SDS011;39397;53.204;5.778;2022-12-18T00:05:48;76.18;;;36.88;;
53519;SDS011;39397;53.204;5.778;2022-12-18T00:08:15;75.20;;;34.03;;
53519;SDS011;39397;53.204;5.778;2022-12-18T00:10:41;81.03;;;36.88;;
53519;SDS011;39397;53.204;5.778;2022-12-18T00:13:07;79.85;;;34.78;;
53519;SDS011;39397;53.204;5.778;2022-12-18T00:15:34;71.38;;;34.53;;
53519;SDS011;39397;53.204;5.778;2022-12-18T00:18:00;85.10;;;38.05;;
53519;SDS011;39397;53.204;5.778;2022-12-18T00:20:26;83.65;;;36.83;;
53519;SDS011;39397;53.204;5.778;2022-12-18T00:22:52;78.38;;;34.45;;
53519;SDS011;39397;53.204;5.778;2022-12-18T00:25:18;70.53;;;31.85;;
53519;SDS011;39397;53.204;5.778;2022-12-18T00:27:44;76.90;;;33.95;;
53519;SDS011;39397;53.204;5.778;2022-12-18T00:30:10;74.05;;;34.55;;
53519;SDS011;39397;53.204;5.778;2022-12-18T00:32:36;76.88;;;35.83;;
53519;SDS011;39397;53.204;5.778;2022-12-18T00:35:02;80.63;;;36.38;;
53519;SDS011;39397;53.204;5.778;2022-12-18T00:37:28;77.32;;;35.67;;
53519;SDS011;39397;53.204;5.778;2022-12-18T00:39:54;73.55;;;36.53;;
53519;SDS011;39397;53.204;5.778;2022-12-18T00:42:20;76.18;;;33.58;;
53519;SDS011;39397;53.204;5.778;2022-12-18T00:45:04;80.28;;;36.45;;
53519;SDS011;39397;53.204;5.778;2022-12-18T00:47:30;74.20;;;35.42;;
53519;SDS011;39397;53.204;5.778;2022-12-18T00:49:56;83.88;;;36.95;;
53519;SDS011;39397;53.204;5.778;2022-12-18T00:52:21;85.53;;;38.25;;
53519;SDS011;39397;53.204;5.778;2022-12-18T00:54:47;77.20;;;35.80;;
53519;SDS011;39397;53.204;5.778;2022-12-18T00:57:12;79.97;;;35.58;;
53519;SDS011;39397;53.204;5.778;2022-12-18T00:59:38;80.10;;;34.00;;
53519;SDS011;39397;53.204;5.778;2022-12-18T01:02:04;80.65;;;37.08;;
53519;SDS011;39397;53.204;5.778;2022-12-18T01:04:31;74.78;;;35.50;;
53519;SDS011;39397;53.204;5.778;2022-12-18T01:06:57;75.40;;;34.60;;
53519;SDS011;39397;53.204;5.778;2022-12-18T01:09:23;66.70;;;33.28;;
53519;SDS011;39397;53.204;5.778;2022-12-18T01:11:48;70.05;;;33.35;;
53519;SDS011;39397;53.204;5.778;2022-12-18T01:14:14;74.40;;;34.00;;
53519;SDS011;39397;53.204;5.778;2022-12-18T01:16:40;69.25;;;32.45;;
53519;SDS011;39397;53.204;5.778;2022-12-18T01:19:06;73.53;;;32.95;;
53519;SDS011;39397;53.204;5.778;2022-12-18T01:21:31;71.10;;;32.13;;
53519;SDS011;39397;53.204;5.778;2022-12-18T01:23:57;70.30;;;33.38;;
53519;SDS011;39397;53.204;5.778;2022-12-18T01:26:24;76.03;;;33.75;;
53519;SDS011;39397;53.204;5.778;2022-12-18T01:28:50;77.95;;;33.50;;
53519;SDS011;39397;53.204;5.778;2022-12-18T01:31:18;73.93;;;33.10;;
53519;SDS011;39397;53.204;5.778;2022-12-18T01:33:45;69.55;;;32.70;;
53519;SDS011;39397;53.204;5.778;2022-12-18T01:36:15;71.30;;;32.88;;
53519;SDS011;39397;53.204;5.778;2022-12-18T01:38:46;68.40;;;33.53;;
53519;SDS011;39397;53.204;5.778;2022-12-18T01:41:12;69.40;;;33.20;;
53519;SDS011;39397;53.204;5.778;2022-12-18T01:43:46;65.93;;;32.78;;
53519;SDS011;39397;53.204;5.778;2022-12-18T01:46:14;71.75;;;32.83;;
53519;SDS011;39397;53.204;5.778;2022-12-18T01:48:42;69.07;;;31.33;;
53519;SDS011;39397;53.204;5.778;2022-12-18T01:51:11;63.88;;;30.77;;
53519;SDS011;39397;53.204;5.778;2022-12-18T01:53:38;60.97;;;29.27;;
53519;SDS011;39397;53.204;5.778;2022-12-18T01:56:06;70.50;;;29.50;;
53519;SDS011;39397;53.204;5.778;2022-12-18T01:58:41;66.30;;;29.77;;
53519;SDS011;39397;53.204;5.778;2022-12-18T02:01:22;64.25;;;29.33;;
53519;SDS011;39397;53.204;5.778;2022-12-18T02:03:48;69.18;;;30.50;;
53519;SDS011;39397;53.204;5.778;2022-12-18T02:06:20;66.85;;;30.35;;
53519;SDS011;39397;53.204;5.778;2022-12-18T02:08:58;67.93;;;31.02;;
53519;SDS011;39397;53.204;5.778;2022-12-18T02:17:01;73.05;;;29.83;;
53519;SDS011;39397;53.204;5.778;2022-12-18T02:27:24;74.10;;;30.63;;
53519;SDS011;39397;53.204;5.778;2022-12-18T02:29:53;81.03;;;32.20;;
53519;SDS011;39397;53.204;5.778;2022-12-18T02:32:34;81.03;;;33.67;;
53519;SDS011;39397;53.204;5.778;2022-12-18T02:35:08;71.90;;;32.78;;
53519;SDS011;39397;53.204;5.778;2022-12-18T02:37:37;76.05;;;33.83;;
53519;SDS011;39397;53.204;5.778;2022-12-18T02:40:05;80.28;;;32.47;;
53519;SDS011;39397;53.204;5.778;2022-12-18T02:42:32;72.95;;;29.98;;
53519;SDS011;39397;53.204;5.778;2022-12-18T02:44:58;72.57;;;30.92;;
53519;SDS011;39397;53.204;5.778;2022-12-18T02:47:24;72.72;;;30.17;;
53519;SDS011;39397;53.204;5.778;2022-12-18T02:52:39;76.22;;;31.00;;
53519;SDS011;39397;53.204;5.778;2022-12-18T02:55:24;69.22;;;29.63;;
53519;SDS011;39397;53.204;5.778;2022-12-18T02:57:58;74.40;;;29.67;;
53519;SDS011;39397;53.204;5.778;2022-12-18T03:10:55;67.55;;;28.77;;
53519;SDS011;39397;53.204;5.778;2022-12-18T03:13:28;80.38;;;31.90;;
53519;SDS011;39397;53.204;5.778;2022-12-18T03:15:59;79.68;;;31.17;;
53519;SDS011;39397;53.204;5.778;2022-12-18T03:18:29;82.18;;;32.70;;
53519;SDS011;39397;53.204;5.778;2022-12-18T03:21:02;81.95;;;30.13;;
53519;SDS011;39397;53.204;5.778;2022-12-18T03:23:32;71.75;;;29.77;;
53519;SDS011;39397;53.204;5.778;2022-12-18T03:26:06;78.95;;;30.73;;
53519;SDS011;39397;53.204;5.778;2022-12-18T03:28:36;73.00;;;30.35;;
53519;SDS011;39397;53.204;5.778;2022-12-18T03:31:05;73.40;;;30.65;;
53519;SDS011;39397;53.204;5.778;2022-12-18T03:33:38;69.53;;;28.60;;
53519;SDS011;39397;53.204;5.778;2022-12-18T03:36:20;77.03;;;30.48;;
53519;SDS011;39397;53.204;5.778;2022-12-18T03:38:47;74.63;;;27.77;;
53519;SDS011;39397;53.204;5.778;2022-12-18T03:41:18;73.30;;;30.70;;
53519;SDS011;39397;53.204;5.778;2022-12-18T03:44:03;76.82;;;30.40;;
53519;SDS011;39397;53.204;5.778;2022-12-18T03:46:38;68.38;;;27.92;;
53519;SDS011;39397;53.204;5.778;2022-12-18T03:52:45;75.50;;;28.63;;
53519;SDS011;39397;53.204;5.778;2022-12-18T03:55:25;85.63;;;32.72;;
53519;SDS011;39397;53.204;5.778;2022-12-18T03:57:55;85.40;;;33.75;;
53519;SDS011;39397;53.204;5.778;2022-12-18T04:00:22;77.38;;;30.70;;
53519;SDS011;39397;53.204;5.778;2022-12-18T04:02:52;78.82;;;30.42;;
53519;SDS011;39397;53.204;5.778;2022-12-18T04:05:20;83.55;;;31.48;;
53519;SDS011;39397;53.204;5.778;2022-12-18T04:07:47;74.70;;;30.05;;
53519;SDS011;39397;53.204;5.778;2022-12-18T04:10:16;77.15;;;31.17;;
53519;SDS011;39397;53.204;5.778;2022-12-18T04:12:42;86.78;;;31.95;;
53519;SDS011;39397;53.204;5.778;2022-12-18T04:15:08;82.22;;;30.40;;
53519;SDS011;39397;53.204;5.778;2022-12-18T04:17:35;73.35;;;32.28;;
53519;SDS011;39397;53.204;5.778;2022-12-18T04:20:00;81.85;;;31.40;;
53519;SDS011;39397;53.204;5.778;2022-12-18T04:22:26;73.18;;;29.65;;
53519;SDS011;39397;53.204;5.778;2022-12-18T04:24:52;79.72;;;30.35;;
53519;SDS011;39397;53.204;5.778;2022-12-18T04:27:17;78.32;;;30.58;;
53519;SDS011;39397;53.204;5.778;2022-12-18T04:29:43;73.57;;;29.25;;
53519;SDS011;39397;53.204;5.778;2022-12-18T04:32:09;76.75;;;30.90;;
53519;SDS011;39397;53.204;5.778;2022-12-18T04:34:35;79.80;;;32.10;;
53519;SDS011;39397;53.204;5.778;2022-12-18T04:37:01;68.80;;;28.25;;
53519;SDS011;39397;53.204;5.778;2022-12-18T04:39:26;78.60;;;30.58;;
53519;SDS011;39397;53.204;5.778;2022-12-18T04:41:52;74.45;;;30.48;;
53519;SDS011;39397;53.204;5.778;2022-12-18T04:44:18;77.07;;;30.98;;
53519;SDS011;39397;53.204;5.778;2022-12-18T04:46:43;83.80;;;31.27;;
53519;SDS011;39397;53.204;5.778;2022-12-18T04:49:09;77.72;;;31.27;;
53519;SDS011;39397;53.204;5.778;2022-12-18T04:51:36;81.82;;;32.53;;
53519;SDS011;39397;53.204;5.778;2022-12-18T04:54:02;78.18;;;30.13;;
53519;SDS011;39397;53.204;5.778;2022-12-18T04:56:28;76.22;;;29.80;;
53519;SDS011;39397;53.204;5.778;2022-12-18T04:58:56;73.22;;;31.20;;
53519;SDS011;39397;53.204;5.778;2022-12-18T05:01:22;82.22;;;33.33;;
53519;SDS011;39397;53.204;5.778;2022-12-18T05:03:47;65.75;;;29.92;;
53519;SDS011;39397;53.204;5.778;2022-12-18T05:06:13;70.47;;;30.92;;
53519;SDS011;39397;53.204;5.778;2022-12-18T05:08:39;73.45;;;30.63;;
53519;SDS011;39397;53.204;5.778;2022-12-18T05:11:05;74.60;;;29.77;;
53519;SDS011;39397;53.204;5.778;2022-12-18T05:13:32;78.97;;;31.25;;
53519;SDS011;39397;53.204;5.778;2022-12-18T05:15:58;73.35;;;29.80;;
53519;SDS011;39397;53.204;5.778;2022-12-18T05:18:25;74.32;;;31.70;;
53519;SDS011;39397;53.204;5.778;2022-12-18T05:20:51;74.22;;;29.67;;
53519;SDS011;39397;53.204;5.778;2022-12-18T05:23:17;75.43;;;30.08;;
53519;SDS011;39397;53.204;5.778;2022-12-18T05:26:03;77.20;;;32.05;;
53519;SDS011;39397;53.204;5.778;2022-12-18T05:28:31;66.47;;;26.23;;
53519;SDS011;39397;53.204;5.778;2022-12-18T05:30:59;74.15;;;30.23;;
53519;SDS011;39397;53.204;5.778;2022-12-18T05:33:28;69.30;;;27.83;;
53519;SDS011;39397;53.204;5.778;2022-12-18T05:35:57;65.72;;;27.40;;
53519;SDS011;39397;53.204;5.778;2022-12-18T05:38:25;69.82;;;28.00;;
53519;SDS011;39397;53.204;5.778;2022-12-18T05:40:51;64.47;;;27.88;;
53519;SDS011;39397;53.204;5.778;2022-12-18T05:43:18;59.80;;;26.65;;
53519;SDS011;39397;53.204;5.778;2022-12-18T05:45:44;62.63;;;27.88;;
53519;SDS011;39397;53.204;5.778;2022-12-18T05:48:10;67.90;;;27.77;;
53519;SDS011;39397;53.204;5.778;2022-12-18T05:50:36;65.30;;;28.98;;
53519;SDS011;39397;53.204;5.778;2022-12-18T05:53:03;61.17;;;27.05;;
53519;SDS011;39397;53.204;5.778;2022-12-18T05:55:33;74.00;;;29.17;;
53519;SDS011;39397;53.204;5.778;2022-12-18T05:58:03;69.65;;;29.30;;
53519;SDS011;39397;53.204;5.778;2022-12-18T06:00:31;75.28;;;28.80;;
53519;SDS011;39397;53.204;5.778;2022-12-18T06:02:57;63.42;;;27.88;;
53519;SDS011;39397;53.204;5.778;2022-12-18T06:05:24;67.40;;;28.20;;
53519;SDS011;39397;53.204;5.778;2022-12-18T06:07:50;69.15;;;29.52;;
53519;SDS011;39397;53.204;5.778;2022-12-18T06:10:16;58.70;;;25.92;;
53519;SDS011;39397;53.204;5.778;2022-12-18T06:12:41;55.58;;;27.00;;
53519;SDS011;39397;53.204;5.778;2022-12-18T06:15:07;57.10;;;26.10;;
53519;SDS011;39397;53.204;5.778;2022-12-18T06:17:33;63.17;;;26.77;;
53519;SDS011;39397;53.204;5.778;2022-12-18T06:19:59;61.72;;;26.20;;
53519;SDS011;39397;53.204;5.778;2022-12-18T06:22:26;61.97;;;25.90;;
53519;SDS011;39397;53.204;5.778;2022-12-18T06:24:52;60.72;;;26.30;;
53519;SDS011;39397;53.204;5.778;2022-12-18T06:27:18;57.60;;;25.95;;
53519;SDS011;39397;53.204;5.778;2022-12-18T06:29:44;56.83;;;24.60;;
53519;SDS011;39397;53.204;5.778;2022-12-18T06:32:10;55.72;;;25.35;;
53519;SDS011;39397;53.204;5.778;2022-12-18T06:34:39;52.72;;;24.02;;
53519;SDS011;39397;53.204;5.778;2022-12-18T06:37:04;49.17;;;23.85;;
53519;SDS011;39397;53.204;5.778;2022-12-18T06:39:30;52.78;;;24.40;;
53519;SDS011;39397;53.204;5.778;2022-12-18T06:41:56;52.58;;;23.65;;
53519;SDS011;39397;53.204;5.778;2022-12-18T06:44:22;61.38;;;26.58;;
53519;SDS011;39397;53.204;5.778;2022-12-18T06:46:47;57.95;;;23.45;;
53519;SDS011;39397;53.204;5.778;2022-12-18T06:49:13;49.72;;;23.45;;
53519;SDS011;39397;53.204;5.778;2022-12-18T06:51:41;50.03;;;24.27;;
53519;SDS011;39397;53.204;5.778;2022-12-18T06:54:06;52.15;;;22.92;;
53519;SDS011;39397;53.204;5.778;2022-12-18T06:56:32;52.30;;;25.48;;
53519;SDS011;39397;53.204;5.778;2022-12-18T06:58:58;49.35;;;21.77;;
53519;SDS011;39397;53.204;5.778;2022-12-18T07:01:24;49.50;;;22.05;;
53519;SDS011;39397;53.204;5.778;2022-12-18T07:03:53;47.40;;;23.13;;
53519;SDS011;39397;53.204;5.778;2022-12-18T07:06:21;48.00;;;23.90;;
53519;SDS011;39397;53.204;5.778;2022-12-18T07:08:49;47.72;;;22.30;;
53519;SDS011;39397;53.204;5.778;2022-12-18T07:11:16;52.47;;;24.25;;
53519;SDS011;39397;53.204;5.778;2022-12-18T07:13:43;53.85;;;23.00;;
53519;SDS011;39397;53.204;5.778;2022-12-18T07:16:10;49.63;;;23.00;;
53519;SDS011;39397;53.204;5.778;2022-12-18T07:18:38;44.97;;;21.08;;
53519;SDS011;39397;53.204;5.778;2022-12-18T07:21:08;42.13;;;21.20;;
53519;SDS011;39397;53.204;5.778;2022-12-18T07:23:36;52.38;;;23.20;;
53519;SDS011;39397;53.204;5.778;2022-12-18T07:26:06;44.67;;;20.42;;
53519;SDS011;39397;53.204;5.778;2022-12-18T07:28:34;45.08;;;20.38;;
53519;SDS011;39397;53.204;5.778;2022-12-18T07:31:05;42.88;;;19.42;;
53519;SDS011;39397;53.204;5.778;2022-12-18T07:33:32;47.88;;;21.63;;
53519;SDS011;39397;53.204;5.778;2022-12-18T07:35:59;42.03;;;20.15;;
53519;SDS011;39397;53.204;5.778;2022-12-18T07:38:25;42.53;;;19.58;;
53519;SDS011;39397;53.204;5.778;2022-12-18T07:40:51;51.80;;;21.45;;
53519;SDS011;39397;53.204;5.778;2022-12-18T07:43:16;44.08;;;20.05;;
53519;SDS011;39397;53.204;5.778;2022-12-18T07:45:42;43.53;;;19.95;;
53519;SDS011;39397;53.204;5.778;2022-12-18T07:48:08;42.70;;;19.48;;
53519;SDS011;39397;53.204;5.778;2022-12-18T07:50:34;37.92;;;17.88;;
53519;SDS011;39397;53.204;5.778;2022-12-18T07:53:00;42.85;;;19.45;;
53519;SDS011;39397;53.204;5.778;2022-12-18T07:55:29;38.03;;;18.20;;
53519;SDS011;39397;53.204;5.778;2022-12-18T07:57:55;39.78;;;18.20;;
53519;SDS011;39397;53.204;5.778;2022-12-18T08:00:21;38.15;;;17.40;;
53519;SDS011;39397;53.204;5.778;2022-12-18T08:02:46;37.63;;;18.63;;
53519;SDS011;39397;53.204;5.778;2022-12-18T08:05:12;36.05;;;17.52;;
53519;SDS011;39397;53.204;5.778;2022-12-18T08:07:38;39.00;;;17.30;;
53519;SDS011;39397;53.204;5.778;2022-12-18T08:10:05;40.30;;;18.40;;
53519;SDS011;39397;53.204;5.778;2022-12-18T08:12:31;35.35;;;17.75;;
53519;SDS011;39397;53.204;5.778;2022-12-18T08:14:56;38.85;;;19.48;;
53519;SDS011;39397;53.204;5.778;2022-12-18T08:17:22;36.70;;;17.70;;
53519;SDS011;39397;53.204;5.778;2022-12-18T08:19:48;38.60;;;18.15;;
53519;SDS011;39397;53.204;5.778;2022-12-18T08:22:13;45.88;;;18.10;;
53519;SDS011;39397;53.204;5.778;2022-12-18T08:24:39;35.35;;;17.02;;
53519;SDS011;39397;53.204;5.778;2022-12-18T08:27:05;35.67;;;16.98;;
53519;SDS011;39397;53.204;5.778;2022-12-18T08:29:30;34.53;;;18.40;;
53519;SDS011;39397;53.204;5.778;2022-12-18T08:31:56;34.53;;;17.92;;
53519;SDS011;39397;53.204;5.778;2022-12-18T08:34:22;33.78;;;16.60;;
53519;SDS011;39397;53.204;5.778;2022-12-18T08:36:48;35.35;;;17.90;;
53519;SDS011;39397;53.204;5.778;2022-12-18T08:39:14;33.17;;;16.92;;
53519;SDS011;39397;53.204;5.778;2022-12-18T08:41:40;34.58;;;17.45;;
53519;SDS011;39397;53.204;5.778;2022-12-18T08:44:07;31.23;;;16.15;;
53519;SDS011;39397;53.204;5.778;2022-12-18T08:46:51;37.15;;;17.73;;
53519;SDS011;39397;53.204;5.778;2022-12-18T08:49:17;32.28;;;17.88;;
53519;SDS011;39397;53.204;5.778;2022-12-18T08:51:43;31.45;;;15.75;;
53519;SDS011;39397;53.204;5.778;2022-12-18T08:54:10;32.67;;;15.98;;
53519;SDS011;39397;53.204;5.778;2022-12-18T08:56:38;30.77;;;17.50;;
53519;SDS011;39397;53.204;5.778;2022-12-18T08:59:04;38.10;;;18.98;;
53519;SDS011;39397;53.204;5.778;2022-12-18T09:01:29;32.88;;;15.30;;
53519;SDS011;39397;53.204;5.778;2022-12-18T09:03:55;35.00;;;16.92;;
53519;SDS011;39397;53.204;5.778;2022-12-18T09:06:21;27.48;;;15.48;;
53519;SDS011;39397;53.204;5.778;2022-12-18T09:08:48;30.52;;;16.42;;
53519;SDS011;39397;53.204;5.778;2022-12-18T09:11:24;31.05;;;15.32;;
53519;SDS011;39397;53.204;5.778;2022-12-18T09:13:51;29.95;;;15.75;;
53519;SDS011;39397;53.204;5.778;2022-12-18T09:16:17;27.40;;;16.08;;
53519;SDS011;39397;53.204;5.778;2022-12-18T09:18:44;26.55;;;14.50;;
53519;SDS011;39397;53.204;5.778;2022-12-18T09:21:12;29.85;;;15.30;;
53519;SDS011;39397;53.204;5.778;2022-12-18T09:23:39;27.42;;;13.93;;
53519;SDS011;39397;53.204;5.778;2022-12-18T09:26:05;27.88;;;14.65;;
53519;SDS011;39397;53.204;5.778;2022-12-18T09:28:32;25.52;;;13.55;;
53519;SDS011;39397;53.204;5.778;2022-12-18T09:30:57;30.02;;;14.98;;
53519;SDS011;39397;53.204;5.778;2022-12-18T09:33:23;29.17;;;14.02;;
53519;SDS011;39397;53.204;5.778;2022-12-18T09:35:49;30.13;;;15.38;;
53519;SDS011;39397;53.204;5.778;2022-12-18T09:38:16;29.70;;;13.43;;
53519;SDS011;39397;53.204;5.778;2022-12-18T09:40:50;29.02;;;14.50;;
53519;SDS011;39397;53.204;5.778;2022-12-18T09:43:20;29.20;;;13.40;;
53519;SDS011;39397;53.204;5.778;2022-12-18T09:45:55;25.63;;;13.77;;
53519;SDS011;39397;53.204;5.778;2022-12-18T09:48:36;26.80;;;14.07;;
53519;SDS011;39397;53.204;5.778;2022-12-18T09:51:16;26.67;;;13.55;;
53519;SDS011;39397;53.204;5.778;2022-12-18T09:53:53;28.15;;;14.55;;
53519;SDS011;39397;53.204;5.778;2022-12-18T09:56:24;24.02;;;13.75;;
53519;SDS011;39397;53.204;5.778;2022-12-18T09:59:00;24.85;;;13.63;;
53519;SDS011;39397;53.204;5.778;2022-12-18T10:01:27;31.02;;;15.45;;
53519;SDS011;39397;53.204;5.778;2022-12-18T10:03:54;27.58;;;13.77;;
53519;SDS011;39397;53.204;5.778;2022-12-18T10:06:29;28.50;;;13.73;;
53519;SDS011;39397;53.204;5.778;2022-12-18T10:17:07;23.33;;;12.50;;
53519;SDS011;39397;53.204;5.778;2022-12-18T10:24:49;20.90;;;11.52;;
53519;SDS011;39397;53.204;5.778;2022-12-18T10:27:27;23.65;;;12.05;;
53519;SDS011;39397;53.204;5.778;2022-12-18T10:29:54;19.65;;;11.57;;
53519;SDS011;39397;53.204;5.778;2022-12-18T10:32:21;25.45;;;12.45;;
53519;SDS011;39397;53.204;5.778;2022-12-18T10:34:50;18.88;;;10.50;;
53519;SDS011;39397;53.204;5.778;2022-12-18T10:37:18;22.02;;;12.00;;
53519;SDS011;39397;53.204;5.778;2022-12-18T10:39:46;20.85;;;11.15;;
53519;SDS011;39397;53.204;5.778;2022-12-18T10:42:30;18.17;;;10.82;;
53519;SDS011;39397;53.204;5.778;2022-12-18T10:45:15;20.05;;;11.98;;
53519;SDS011;39397;53.204;5.778;2022-12-18T10:47:51;17.17;;;10.23;;
53519;SDS011;39397;53.204;5.778;2022-12-18T10:50:29;18.23;;;10.35;;
53519;SDS011;39397;53.204;5.778;2022-12-18T10:53:00;17.75;;;10.25;;
53519;SDS011;39397;53.204;5.778;2022-12-18T10:55:32;18.35;;;9.02;;
53519;SDS011;39397;53.204;5.778;2022-12-18T10:58:16;14.80;;;9.15;;
53519;SDS011;39397;53.204;5.778;2022-12-18T11:00:45;15.18;;;9.35;;
53519;SDS011;39397;53.204;5.778;2022-12-18T11:03:33;15.95;;;8.68;;
53519;SDS011;39397;53.204;5.778;2022-12-18T11:06:08;15.32;;;8.43;;
53519;SDS011;39397;53.204;5.778;2022-12-18T11:08:34;15.60;;;8.30;;
53519;SDS011;39397;53.204;5.778;2022-12-18T11:11:01;14.63;;;8.80;;
53519;SDS011;39397;53.204;5.778;2022-12-18T11:13:28;18.02;;;9.25;;
53519;SDS011;39397;53.204;5.778;2022-12-18T11:15:56;16.30;;;9.18;;
53519;SDS011;39397;53.204;5.778;2022-12-18T11:18:27;14.95;;;9.00;;
53519;SDS011;39397;53.204;5.778;2022-12-18T11:20:57;13.98;;;8.30;;
53519;SDS011;39397;53.204;5.778;2022-12-18T11:23:26;13.70;;;7.80;;
53519;SDS011;39397;53.204;5.778;2022-12-18T11:25:56;12.02;;;7.63;;
53519;SDS011;39397;53.204;5.778;2022-12-18T11:28:40;14.95;;;7.50;;
53519;SDS011;39397;53.204;5.778;2022-12-18T11:33:46;16.75;;;8.05;;
53519;SDS011;39397;53.204;5.778;2022-12-18T11:36:20;13.05;;;7.75;;
53519;SDS011;39397;53.204;5.778;2022-12-18T11:38:47;14.13;;;7.20;;
53519;SDS011;39397;53.204;5.778;2022-12-18T11:41:28;15.00;;;9.05;;
53519;SDS011;39397;53.204;5.778;2022-12-18T11:44:26;12.70;;;7.05;;
53519;SDS011;39397;53.204;5.778;2022-12-18T11:46:59;12.93;;;7.53;;
53519;SDS011;39397;53.204;5.778;2022-12-18T11:49:33;13.93;;;7.00;;
53519;SDS011;39397;53.204;5.778;2022-12-18T11:52:09;13.10;;;7.63;;
53519;SDS011;39397;53.204;5.778;2022-12-18T11:54:50;14.38;;;7.47;;
53519;SDS011;39397;53.204;5.778;2022-12-18T12:05:25;12.82;;;7.78;;
53519;SDS011;39397;53.204;5.778;2022-12-18T12:16:29;13.50;;;7.70;;
53519;SDS011;39397;53.204;5.778;2022-12-18T12:19:15;11.85;;;7.03;;
53519;SDS011;39397;53.204;5.778;2022-12-18T12:21:47;13.75;;;7.03;;
53519;SDS011;39397;53.204;5.778;2022-12-18T12:26:45;12.75;;;7.05;;
53519;SDS011;39397;53.204;5.778;2022-12-18T12:32:25;12.23;;;6.97;;
53519;SDS011;39397;53.204;5.778;2022-12-18T12:40:26;11.85;;;6.50;;
53519;SDS011;39397;53.204;5.778;2022-12-18T12:42:59;12.02;;;7.22;;
53519;SDS011;39397;53.204;5.778;2022-12-18T12:51:37;12.95;;;7.03;;
53519;SDS011;39397;53.204;5.778;2022-12-18T12:54:06;11.70;;;6.60;;
53519;SDS011;39397;53.204;5.778;2022-12-18T12:56:55;12.63;;;6.50;;
53519;SDS011;39397;53.204;5.778;2022-12-18T13:05:31;14.02;;;7.45;;
53519;SDS011;39397;53.204;5.778;2022-12-18T13:07:28;10.57;;;6.28;;
53519;SDS011;39397;53.204;5.778;2022-12-18T13:15:38;11.73;;;7.65;;
53519;SDS011;39397;53.204;5.778;2022-12-18T13:25:51;12.40;;;6.60;;
53519;SDS011;39397;53.204;5.778;2022-12-18T13:28:21;11.73;;;6.32;;
53519;SDS011;39397;53.204;5.778;2022-12-18T13:31:07;11.27;;;6.05;;
53519;SDS011;39397;53.204;5.778;2022-12-18T13:33:37;9.45;;;6.32;;
53519;SDS011;39397;53.204;5.778;2022-12-18T13:36:25;16.70;;;7.72;;
53519;SDS011;39397;53.204;5.778;2022-12-18T13:41:40;12.55;;;7.30;;
53519;SDS011;39397;53.204;5.778;2022-12-18T13:44:22;13.15;;;7.15;;
53519;SDS011;39397;53.204;5.778;2022-12-18T13:46:58;12.15;;;6.93;;
53519;SDS011;39397;53.204;5.778;2022-12-18T13:49:26;10.20;;;6.70;;
53519;SDS011;39397;53.204;5.778;2022-12-18T13:52:14;9.38;;;5.55;;
53519;SDS011;39397;53.204;5.778;2022-12-18T13:54:43;13.18;;;7.05;;
53519;SDS011;39397;53.204;5.778;2022-12-18T14:02:50;11.23;;;6.75;;
53519;SDS011;39397;53.204;5.778;2022-12-18T14:05:30;11.18;;;6.13;;
53519;SDS011;39397;53.204;5.778;2022-12-18T14:08:05;11.20;;;6.68;;
53519;SDS011;39397;53.204;5.778;2022-12-18T14:10:35;10.77;;;6.05;;
53519;SDS011;39397;53.204;5.778;2022-12-18T14:13:07;10.93;;;6.15;;
53519;SDS011;39397;53.204;5.778;2022-12-18T14:15:38;11.10;;;5.90;;
53519;SDS011;39397;53.204;5.778;2022-12-18T14:18:19;11.60;;;6.43;;
53519;SDS011;39397;53.204;5.778;2022-12-18T14:20:45;10.10;;;5.53;;
53519;SDS011;39397;53.204;5.778;2022-12-18T14:26:02;10.63;;;5.63;;
53519;SDS011;39397;53.204;5.778;2022-12-18T14:28:44;10.95;;;6.47;;
53519;SDS011;39397;53.204;5.778;2022-12-18T14:31:23;9.93;;;5.45;;
53519;SDS011;39397;53.204;5.778;2022-12-18T14:33:51;9.88;;;5.30;;
53519;SDS011;39397;53.204;5.778;2022-12-18T14:36:18;17.27;;;9.30;;
53519;SDS011;39397;53.204;5.778;2022-12-18T14:38:52;15.27;;;9.02;;
53519;SDS011;39397;53.204;5.778;2022-12-18T14:41:20;12.15;;;7.13;;
53519;SDS011;39397;53.204;5.778;2022-12-18T14:43:48;14.55;;;8.50;;
53519;SDS011;39397;53.204;5.778;2022-12-18T14:46:57;14.10;;;7.68;;
53519;SDS011;39397;53.204;5.778;2022-12-18T14:49:14;10.32;;;6.15;;
53519;SDS011;39397;53.204;5.778;2022-12-18T14:51:47;15.55;;;8.70;;
53519;SDS011;39397;53.204;5.778;2022-12-18T14:54:15;11.43;;;6.68;;
53519;SDS011;39397;53.204;5.778;2022-12-18T14:56:44;10.23;;;6.38;;
53519;SDS011;39397;53.204;5.778;2022-12-18T14:59:15;13.40;;;6.47;;
53519;SDS011;39397;53.204;5.778;2022-12-18T15:04:24;10.88;;;6.07;;
53519;SDS011;39397;53.204;5.778;2022-12-18T15:09:36;10.63;;;5.28;;
53519;SDS011;39397;53.204;5.778;2022-12-18T15:12:03;8.52;;;5.25;;
53519;SDS011;39397;53.204;5.778;2022-12-18T15:16:55;8.80;;;5.15;;
53519;SDS011;39397;53.204;5.778;2022-12-18T15:19:22;8.38;;;5.10;;
53519;SDS011;39397;53.204;5.778;2022-12-18T15:22:04;9.57;;;5.28;;
53519;SDS011;39397;53.204;5.778;2022-12-18T15:24:37;14.23;;;7.97;;
53519;SDS011;39397;53.204;5.778;2022-12-18T15:27:03;11.98;;;7.28;;
53519;SDS011;39397;53.204;5.778;2022-12-18T15:29:28;9.10;;;5.20;;
53519;SDS011;39397;53.204;5.778;2022-12-18T15:32:04;9.98;;;4.97;;
53519;SDS011;39397;53.204;5.778;2022-12-18T15:34:43;11.45;;;5.18;;
53519;SDS011;39397;53.204;5.778;2022-12-18T15:37:08;11.50;;;6.07;;
53519;SDS011;39397;53.204;5.778;2022-12-18T15:39:34;9.88;;;6.13;;
53519;SDS011;39397;53.204;5.778;2022-12-18T15:42:01;9.40;;;5.40;;
53519;SDS011;39397;53.204;5.778;2022-12-18T15:44:45;9.93;;;4.95;;
53519;SDS011;39397;53.204;5.778;2022-12-18T15:47:12;10.80;;;6.25;;
53519;SDS011;39397;53.204;5.778;2022-12-18T15:49:38;9.05;;;5.82;;
53519;SDS011;39397;53.204;5.778;2022-12-18T15:52:04;10.45;;;5.43;;
53519;SDS011;39397;53.204;5.778;2022-12-18T15:54:30;8.73;;;4.72;;
53519;SDS011;39397;53.204;5.778;2022-12-18T15:57:15;8.15;;;5.35;;
53519;SDS011;39397;53.204;5.778;2022-12-18T15:59:50;8.38;;;5.03;;
53519;SDS011;39397;53.204;5.778;2022-12-18T16:02:18;10.50;;;5.25;;
53519;SDS011;39397;53.204;5.778;2022-12-18T16:04:44;15.35;;;7.50;;
53519;SDS011;39397;53.204;5.778;2022-12-18T16:07:12;9.93;;;5.88;;
53519;SDS011;39397;53.204;5.778;2022-12-18T16:09:38;12.63;;;7.65;;
53519;SDS011;39397;53.204;5.778;2022-12-18T16:12:05;9.57;;;6.00;;
53519;SDS011;39397;53.204;5.778;2022-12-18T16:14:32;12.30;;;6.28;;
53519;SDS011;39397;53.204;5.778;2022-12-18T16:16:58;10.07;;;5.38;;
53519;SDS011;39397;53.204;5.778;2022-12-18T16:19:25;11.43;;;6.78;;
53519;SDS011;39397;53.204;5.778;2022-12-18T16:21:52;11.25;;;5.90;;
53519;SDS011;39397;53.204;5.778;2022-12-18T16:24:21;11.35;;;6.53;;
53519;SDS011;39397;53.204;5.778;2022-12-18T16:26:49;10.15;;;5.20;;
53519;SDS011;39397;53.204;5.778;2022-12-18T16:29:19;10.43;;;5.63;;
53519;SDS011;39397;53.204;5.778;2022-12-18T16:31:49;10.80;;;5.90;;
53519;SDS011;39397;53.204;5.778;2022-12-18T16:34:20;9.30;;;4.93;;
53519;SDS011;39397;53.204;5.778;2022-12-18T16:36:51;9.98;;;5.72;;